Rockrimmin Ridge, Pennsylvania
Current Conditions -  °F | °C
As of 11:38 AM on Monday 24 Nov 2014 (Local Time) from KLNS Reporting Station
Broken Clouds Broken Clouds  
Wind Chill: 67°   Ceiling: 2500
Heat Index: 67°   Visibility: 10mi
Dew Point: 57°   Wind: 13mph
Humidity: 70%   Direction: 200°SSW
Pressure: 29.6"   Gusts: NA
Location:  40.0946°N, 76.1809°W
Report Text: KLNS 241638Z 20011KT 10SM BKN025 19/14 A2960 RMK AO2 T01940139
Loading
Personal Weather Stations






























Interactive Weather Map New forecast layout! Learn more

10-Day Weather Forecast

Advertisements
Track Severe Weather on mobile